createdAt,value
2018-08-17T00:00:48.626Z,0
2018-08-17T00:02:04.551Z,0
2018-08-17T00:03:20.483Z,0
2018-08-17T00:04:36.495Z,0
2018-08-17T00:05:52.450Z,0
2018-08-17T00:07:08.364Z,0
2018-08-17T00:08:24.287Z,0
2018-08-17T00:09:40.240Z,0
2018-08-17T00:10:56.200Z,0
2018-08-17T00:12:12.090Z,0
2018-08-17T00:13:28.024Z,0
2018-08-17T00:14:43.953Z,0
2018-08-17T00:15:59.916Z,0
2018-08-17T00:17:15.765Z,0
2018-08-17T00:18:31.657Z,0
2018-08-17T00:19:47.651Z,0
2018-08-17T00:21:03.581Z,0
2018-08-17T00:22:19.487Z,0
2018-08-17T00:23:35.384Z,0
2018-08-17T00:24:51.336Z,0
2018-08-17T00:26:07.233Z,0
2018-08-17T00:27:23.141Z,0
2018-08-17T00:28:39.012Z,0
2018-08-17T00:29:55.108Z,0
2018-08-17T00:31:10.996Z,0
2018-08-17T00:32:26.889Z,0
2018-08-17T00:33:42.794Z,0
2018-08-17T00:34:58.738Z,0
2018-08-17T00:36:14.669Z,0
2018-08-17T00:37:30.690Z,0
2018-08-17T00:38:46.638Z,0
2018-08-17T00:40:02.570Z,0
2018-08-17T00:41:18.503Z,0
2018-08-17T00:42:34.463Z,0
2018-08-17T00:43:50.391Z,0
2018-08-17T00:45:06.302Z,0
2018-08-17T00:46:22.262Z,0
2018-08-17T00:47:38.175Z,0
2018-08-17T00:48:54.145Z,0
2018-08-17T00:50:10.074Z,0
2018-08-17T00:51:25.991Z,0
2018-08-17T00:52:42.004Z,0
2018-08-17T00:53:57.968Z,0
2018-08-17T00:55:13.881Z,0
2018-08-17T00:56:29.808Z,0
2018-08-17T00:57:45.729Z,0
2018-08-17T00:59:01.731Z,0
2018-08-17T01:00:17.685Z,0
2018-08-17T01:01:33.649Z,0
2018-08-17T01:02:49.628Z,0
2018-08-17T01:04:05.554Z,0
2018-08-17T01:05:21.566Z,0
2018-08-17T01:06:37.496Z,0
2018-08-17T01:07:53.404Z,0
2018-08-17T01:09:09.312Z,0
2018-08-17T01:10:25.234Z,0
2018-08-17T01:11:41.136Z,0
2018-08-17T01:12:57.046Z,0
2018-08-17T01:14:12.923Z,0
2018-08-17T01:15:28.926Z,0
2018-08-17T01:16:44.829Z,0
2018-08-17T01:18:00.767Z,0
2018-08-17T01:19:16.686Z,0
2018-08-17T01:20:32.632Z,0
2018-08-17T01:21:48.548Z,0
2018-08-17T01:23:04.497Z,0
2018-08-17T01:24:20.416Z,0
2018-08-17T01:25:36.364Z,0
2018-08-17T01:26:52.384Z,0
2018-08-17T01:28:08.274Z,0
2018-08-17T01:29:24.201Z,0
2018-08-17T01:30:40.113Z,0
2018-08-17T01:31:56.067Z,0
2018-08-17T01:33:11.976Z,0
2018-08-17T01:34:27.881Z,0
2018-08-17T01:35:43.762Z,0
2018-08-17T01:36:59.667Z,0
2018-08-17T01:38:15.598Z,0
2018-08-17T01:39:31.549Z,0
2018-08-17T01:40:47.434Z,0
2018-08-17T01:42:03.343Z,0
2018-08-17T01:43:19.214Z,0
2018-08-17T01:44:35.100Z,0
2018-08-17T01:45:51.027Z,0
2018-08-17T01:47:07.058Z,0
2018-08-17T01:48:22.932Z,0
2018-08-17T01:49:38.824Z,0
2018-08-17T01:50:54.696Z,0
2018-08-17T01:52:10.660Z,0
2018-08-17T01:53:26.536Z,0
2018-08-17T01:54:42.431Z,0
2018-08-17T01:55:58.322Z,0
2018-08-17T01:57:14.279Z,0
2018-08-17T01:58:30.168Z,0
2018-08-17T01:59:46.043Z,0
2018-08-17T02:01:01.995Z,0
2018-08-17T02:02:17.918Z,0
2018-08-17T02:03:33.816Z,0
2018-08-17T02:04:49.679Z,0
2018-08-17T02:06:05.565Z,0
2018-08-17T02:07:21.482Z,0
2018-08-17T02:08:37.399Z,0
2018-08-17T02:09:53.303Z,0
2018-08-17T02:11:09.201Z,0
2018-08-17T02:12:25.161Z,0
2018-08-17T02:13:41.065Z,0
2018-08-17T02:14:56.962Z,0
2018-08-17T02:16:12.810Z,0
2018-08-17T02:17:28.688Z,0
2018-08-17T02:18:44.561Z,0
2018-08-17T02:20:00.586Z,0
2018-08-17T02:21:16.590Z,0
2018-08-17T02:22:32.504Z,0
2018-08-17T02:23:48.459Z,0
2018-08-17T02:25:04.402Z,0
2018-08-17T02:26:20.314Z,0
2018-08-17T02:27:36.224Z,0
2018-08-17T02:28:52.172Z,0
2018-08-17T02:30:08.067Z,0
2018-08-17T02:31:24.034Z,0
2018-08-17T02:32:39.964Z,0
2018-08-17T02:33:55.889Z,0
2018-08-17T02:35:11.787Z,0
2018-08-17T02:36:27.668Z,0
2018-08-17T02:37:43.599Z,0
2018-08-17T02:38:59.494Z,0
2018-08-17T02:40:15.398Z,0
2018-08-17T02:41:31.261Z,0
2018-08-17T02:42:47.134Z,0
2018-08-17T02:44:03.061Z,0
2018-08-17T02:45:18.934Z,0
2018-08-17T02:46:34.813Z,0
2018-08-17T02:47:50.723Z,0
2018-08-17T02:49:06.624Z,0
2018-08-17T02:50:22.530Z,0
2018-08-17T02:51:38.436Z,0
2018-08-17T02:52:54.403Z,0
2018-08-17T02:54:10.473Z,0
2018-08-17T02:55:26.381Z,0
2018-08-17T02:56:42.298Z,0
2018-08-17T02:57:58.221Z,0
2018-08-17T02:59:14.131Z,0
2018-08-17T03:00:30.065Z,0
2018-08-17T03:01:46.004Z,0
2018-08-17T03:03:01.945Z,0
2018-08-17T03:04:17.798Z,0
2018-08-17T03:05:33.725Z,0
2018-08-17T03:06:49.614Z,0
2018-08-17T03:08:05.550Z,0
2018-08-17T03:09:21.459Z,0
2018-08-17T03:10:37.355Z,0
2018-08-17T03:11:53.267Z,0
2018-08-17T03:13:09.166Z,0
2018-08-17T03:14:25.112Z,0
2018-08-17T03:15:41.002Z,0
2018-08-17T03:16:56.915Z,0
2018-08-17T03:18:12.805Z,0
2018-08-17T03:19:28.706Z,0
2018-08-17T03:20:44.621Z,0
2018-08-17T03:22:00.531Z,0
2018-08-17T03:23:16.423Z,0
2018-08-17T03:24:32.364Z,0
2018-08-17T03:25:48.255Z,0
2018-08-17T03:27:04.152Z,0
2018-08-17T03:28:20.029Z,0
2018-08-17T03:29:36.016Z,0
2018-08-17T03:30:51.935Z,0
2018-08-17T03:32:07.824Z,0
2018-08-17T03:33:23.740Z,0
2018-08-17T03:34:39.639Z,0
2018-08-17T03:35:55.546Z,0
2018-08-17T03:37:11.508Z,0
2018-08-17T03:38:27.363Z,0
2018-08-17T03:39:43.247Z,0
2018-08-17T03:40:59.150Z,0
2018-08-17T03:42:15.080Z,0
2018-08-17T03:43:31.044Z,0
2018-08-17T03:44:46.953Z,0
2018-08-17T03:46:02.869Z,0
2018-08-17T03:47:18.730Z,0
2018-08-17T03:48:34.612Z,0
2018-08-17T03:49:50.512Z,0
2018-08-17T03:51:06.384Z,0
2018-08-17T03:52:22.259Z,0
2018-08-17T03:53:38.171Z,0
2018-08-17T03:54:54.064Z,0
2018-08-17T03:56:09.925Z,0
2018-08-17T03:57:25.840Z,0
2018-08-17T03:58:41.752Z,0
2018-08-17T03:59:57.659Z,0
2018-08-17T04:01:13.558Z,0
2018-08-17T04:02:29.496Z,0
2018-08-17T04:03:45.389Z,0
2018-08-17T04:05:01.271Z,0
2018-08-17T04:06:17.210Z,0
2018-08-17T04:07:33.977Z,0
2018-08-17T04:08:49.901Z,0
2018-08-17T04:10:05.839Z,0
2018-08-17T04:11:21.734Z,0
2018-08-17T04:12:37.603Z,0
2018-08-17T04:13:53.469Z,0
2018-08-17T04:15:09.381Z,0
2018-08-17T04:16:25.289Z,0
2018-08-17T04:17:41.177Z,0
2018-08-17T04:18:57.090Z,0
2018-08-17T04:20:13.046Z,0
2018-08-17T04:21:29.054Z,0
2018-08-17T04:22:44.931Z,0
2018-08-17T04:24:00.823Z,0
2018-08-17T04:25:16.760Z,0
2018-08-17T04:26:32.621Z,0
2018-08-17T04:27:48.578Z,0
2018-08-17T04:29:04.553Z,0
2018-08-17T04:30:20.469Z,0
2018-08-17T04:31:36.431Z,0
2018-08-17T04:32:52.325Z,0
2018-08-17T04:34:08.241Z,0
2018-08-17T04:35:24.193Z,0
2018-08-17T04:36:40.091Z,0
2018-08-17T04:37:55.971Z,0
2018-08-17T04:39:11.885Z,0
2018-08-17T04:40:27.828Z,0
2018-08-17T04:41:43.679Z,0
2018-08-17T04:42:59.635Z,0
2018-08-17T04:44:15.740Z,5.625
2018-08-17T04:45:31.704Z,5.625
2018-08-17T04:46:47.602Z,5.625
2018-08-17T04:48:03.562Z,5.625
2018-08-17T04:49:19.556Z,5.625
2018-08-17T04:50:35.436Z,5.625
2018-08-17T04:51:51.320Z,5.625
2018-08-17T04:53:07.265Z,5.625
2018-08-17T04:54:23.163Z,5.625
2018-08-17T04:55:39.152Z,5.625
2018-08-17T04:56:55.106Z,5.625
2018-08-17T04:58:11.002Z,5.625
2018-08-17T04:59:26.939Z,5.625
2018-08-17T05:00:42.846Z,5.625
2018-08-17T05:01:58.780Z,5.625
2018-08-17T05:03:14.755Z,5.625
2018-08-17T05:04:30.657Z,5.625
2018-08-17T05:05:46.587Z,5.625
2018-08-17T05:07:02.510Z,5.625
2018-08-17T05:08:18.424Z,5.625
2018-08-17T05:09:34.326Z,5.625
2018-08-17T05:10:50.448Z,5.625
2018-08-17T05:12:06.360Z,5.625
2018-08-17T05:13:22.287Z,11.25
2018-08-17T05:14:38.222Z,11.25
2018-08-17T05:15:54.142Z,11.25
2018-08-17T05:17:11.313Z,11.25
2018-08-17T05:20:09.160Z,11.25
2018-08-17T05:21:25.120Z,11.25
2018-08-17T05:22:41.030Z,11.25
2018-08-17T05:23:56.985Z,11.25
2018-08-17T05:25:12.881Z,11.25
2018-08-17T05:26:29.252Z,11.25
2018-08-17T05:27:45.286Z,11.25
2018-08-17T05:29:01.223Z,11.25
2018-08-17T05:30:17.188Z,11.25
2018-08-17T05:31:33.096Z,11.25
2018-08-17T05:32:49.008Z,11.25
2018-08-17T05:34:04.926Z,16.875
2018-08-17T05:35:20.851Z,16.875
2018-08-17T05:36:36.793Z,16.875
2018-08-17T05:37:52.736Z,16.875
2018-08-17T05:39:08.613Z,16.875
2018-08-17T05:40:24.594Z,16.875
2018-08-17T05:41:40.519Z,16.875
2018-08-17T05:42:56.437Z,16.875
2018-08-17T05:44:12.359Z,16.875
2018-08-17T05:47:09.051Z,16.875
2018-08-17T05:51:46.993Z,16.875
2018-08-17T05:53:02.988Z,16.875
2018-08-17T05:54:18.978Z,16.875
2018-08-17T05:55:34.886Z,16.875
2018-08-17T05:56:50.782Z,16.875
2018-08-17T05:58:06.742Z,22.5
2018-08-17T05:59:22.779Z,22.5
2018-08-17T06:00:38.834Z,22.5
2018-08-17T06:01:54.819Z,22.5
2018-08-17T06:03:10.773Z,22.5
2018-08-17T06:04:26.705Z,22.5
2018-08-17T06:05:42.620Z,22.5
2018-08-17T06:06:58.542Z,22.5
2018-08-17T06:08:14.473Z,22.5
2018-08-17T06:09:30.461Z,22.5
2018-08-17T06:10:46.408Z,22.5
2018-08-17T06:12:02.402Z,22.5
2018-08-17T06:13:18.356Z,22.5
2018-08-17T06:14:34.343Z,22.5
2018-08-17T06:15:50.267Z,22.5
2018-08-17T06:17:06.198Z,22.5
2018-08-17T06:18:22.109Z,22.5
2018-08-17T06:19:38.048Z,28.125
2018-08-17T06:20:53.959Z,28.125
2018-08-17T06:22:09.866Z,28.125
2018-08-17T06:23:25.802Z,28.125
2018-08-17T06:24:41.754Z,28.125
2018-08-17T06:25:57.685Z,28.125
2018-08-17T06:27:13.601Z,28.125
2018-08-17T06:28:29.520Z,28.125
2018-08-17T06:29:45.485Z,28.125
2018-08-17T06:31:01.420Z,28.125
2018-08-17T06:32:17.399Z,28.125
2018-08-17T06:33:33.333Z,28.125
2018-08-17T06:34:49.267Z,28.125
2018-08-17T06:36:05.296Z,28.125
2018-08-17T06:37:21.097Z,28.125
2018-08-17T06:38:37.982Z,28.125
2018-08-17T06:39:53.899Z,28.125
2018-08-17T06:41:09.838Z,33.75
2018-08-17T06:42:25.753Z,33.75
2018-08-17T06:43:41.841Z,33.75
2018-08-17T06:44:57.762Z,33.75
2018-08-17T06:46:13.710Z,33.75
2018-08-17T06:47:29.637Z,33.75
2018-08-17T06:50:26.092Z,33.75
2018-08-17T06:51:42.009Z,33.75
2018-08-17T06:52:57.957Z,33.75
2018-08-17T06:54:13.869Z,33.75
2018-08-17T06:55:29.785Z,33.75
2018-08-17T06:56:45.766Z,33.75
2018-08-17T06:58:01.672Z,33.75
2018-08-17T06:59:17.626Z,33.75
2018-08-17T07:00:33.531Z,39.375
2018-08-17T07:01:49.485Z,39.375
2018-08-17T07:03:05.479Z,39.375
2018-08-17T07:04:21.413Z,39.375
2018-08-17T07:05:37.407Z,39.375
2018-08-17T07:06:53.382Z,45
2018-08-17T07:08:09.369Z,45
2018-08-17T07:09:25.401Z,45
2018-08-17T07:10:41.333Z,45
2018-08-17T07:11:57.263Z,50.625
2018-08-17T07:13:13.219Z,50.625
2018-08-17T07:14:29.168Z,50.625
2018-08-17T07:15:45.112Z,50.625
2018-08-17T07:17:01.051Z,50.625
2018-08-17T07:18:17.041Z,50.625
2018-08-17T07:19:33.026Z,50.625
2018-08-17T07:20:48.985Z,50.625
2018-08-17T07:22:04.927Z,50.625
2018-08-17T07:23:20.885Z,56.25
2018-08-17T07:24:36.837Z,56.25
2018-08-17T07:25:52.813Z,56.25
2018-08-17T07:27:08.750Z,56.25
2018-08-17T07:28:24.689Z,56.25
2018-08-17T07:29:40.656Z,56.25
2018-08-17T07:30:56.613Z,56.25
2018-08-17T07:32:12.560Z,56.25
2018-08-17T07:33:28.533Z,56.25
2018-08-17T07:34:44.471Z,56.25
2018-08-17T07:36:00.414Z,61.875
2018-08-17T07:37:16.332Z,61.875
2018-08-17T07:38:32.395Z,61.875
2018-08-17T07:39:48.356Z,61.875
2018-08-17T07:41:04.304Z,61.875
2018-08-17T07:42:20.198Z,61.875
2018-08-17T07:43:36.135Z,61.875
2018-08-17T07:44:52.052Z,61.875
2018-08-17T07:46:08.032Z,61.875
2018-08-17T07:47:23.944Z,61.875
2018-08-17T07:48:39.902Z,61.875
2018-08-17T07:49:55.989Z,61.875
2018-08-17T07:51:11.928Z,61.875
2018-08-17T07:52:28.007Z,61.875
2018-08-17T07:53:43.969Z,61.875
2018-08-17T07:54:59.977Z,61.875
2018-08-17T07:56:15.914Z,61.875
2018-08-17T07:57:31.848Z,61.875
2018-08-17T07:58:47.792Z,67.5
2018-08-17T08:00:03.768Z,67.5
2018-08-17T08:01:19.719Z,67.5
2018-08-17T08:02:35.699Z,67.5
2018-08-17T08:03:51.671Z,67.5
2018-08-17T08:05:07.625Z,67.5
2018-08-17T08:06:23.612Z,67.5
2018-08-17T08:07:39.621Z,67.5
2018-08-17T08:08:55.524Z,67.5
2018-08-17T08:10:11.437Z,67.5
2018-08-17T08:11:27.400Z,61.875
2018-08-17T08:12:43.381Z,67.5
2018-08-17T08:13:59.310Z,67.5
2018-08-17T08:15:15.279Z,67.5
2018-08-17T08:16:31.256Z,73.125
2018-08-17T08:17:47.219Z,73.125
2018-08-17T08:19:03.194Z,67.5
2018-08-17T08:20:19.113Z,67.5
2018-08-17T08:21:35.022Z,67.5
2018-08-17T08:22:51.035Z,67.5
2018-08-17T08:24:06.954Z,73.125
2018-08-17T08:25:22.853Z,67.5
2018-08-17T08:26:38.794Z,61.875
2018-08-17T08:27:54.736Z,78.75
2018-08-17T08:29:10.681Z,78.75
2018-08-17T08:30:26.681Z,78.75
2018-08-17T08:31:42.813Z,78.75
2018-08-17T08:32:58.756Z,78.75
2018-08-17T08:34:14.698Z,78.75
2018-08-17T08:35:30.689Z,78.75
2018-08-17T08:36:46.669Z,78.75
2018-08-17T08:38:02.639Z,78.75
2018-08-17T08:39:18.564Z,78.75
2018-08-17T08:40:34.510Z,78.75
2018-08-17T08:41:50.484Z,78.75
2018-08-17T08:43:06.446Z,73.125
2018-08-17T08:44:22.393Z,73.125
2018-08-17T08:45:38.412Z,73.125
2018-08-17T08:46:54.329Z,73.125
2018-08-17T08:48:10.293Z,73.125
2018-08-17T08:49:26.205Z,73.125
2018-08-17T08:50:42.167Z,78.75
2018-08-17T08:51:58.129Z,78.75
2018-08-17T08:53:14.127Z,84.375
2018-08-17T08:54:30.063Z,84.375
2018-08-17T08:55:46.029Z,84.375
2018-08-17T08:57:01.942Z,84.375
2018-08-17T08:58:17.929Z,84.375
2018-08-17T08:59:33.914Z,78.75
2018-08-17T09:00:49.840Z,73.125
2018-08-17T09:02:05.785Z,67.5
2018-08-17T09:03:21.753Z,67.5
2018-08-17T09:04:37.780Z,78.75
2018-08-17T09:05:53.791Z,78.75
2018-08-17T09:07:09.752Z,78.75
2018-08-17T09:08:25.691Z,78.75
2018-08-17T09:09:41.658Z,78.75
2018-08-17T09:10:57.621Z,78.75
2018-08-17T09:12:13.635Z,78.75
2018-08-17T09:13:29.582Z,73.125
2018-08-17T09:14:45.596Z,73.125
2018-08-17T09:16:01.590Z,73.125
2018-08-17T09:17:17.540Z,73.125
2018-08-17T09:18:32.504Z,73.125
2018-08-17T09:19:48.443Z,73.125
2018-08-17T09:21:04.388Z,73.125
2018-08-17T09:22:20.336Z,73.125
2018-08-17T09:23:36.291Z,73.125
2018-08-17T09:24:52.245Z,73.125
2018-08-17T09:26:08.217Z,73.125
2018-08-17T09:27:24.205Z,73.125
2018-08-17T09:28:40.133Z,73.125
2018-08-17T09:29:56.049Z,73.125
2018-08-17T09:31:12.005Z,73.125
2018-08-17T09:32:27.946Z,73.125
2018-08-17T09:33:43.899Z,73.125
2018-08-17T09:34:59.858Z,73.125
2018-08-17T09:36:15.803Z,73.125
2018-08-17T09:37:31.762Z,73.125
2018-08-17T09:38:47.712Z,78.75
2018-08-17T09:40:03.624Z,73.125
2018-08-17T09:41:19.590Z,73.125
2018-08-17T09:42:35.505Z,73.125
2018-08-17T09:43:51.436Z,73.125
2018-08-17T09:45:07.378Z,73.125
2018-08-17T09:46:23.303Z,73.125
2018-08-17T09:47:39.256Z,73.125
2018-08-17T09:48:55.169Z,73.125
2018-08-17T09:50:11.168Z,73.125
2018-08-17T09:51:27.354Z,73.125
2018-08-17T09:52:43.284Z,73.125
2018-08-17T09:53:59.246Z,73.125
2018-08-17T09:55:15.173Z,73.125
2018-08-17T09:56:31.156Z,73.125
2018-08-17T09:57:47.089Z,73.125
2018-08-17T09:59:02.976Z,73.125
2018-08-17T10:00:19.010Z,73.125
2018-08-17T10:01:35.020Z,73.125
2018-08-17T10:02:50.936Z,73.125
2018-08-17T10:04:06.890Z,73.125
2018-08-17T10:05:22.755Z,73.125
2018-08-17T10:06:38.683Z,73.125
2018-08-17T10:07:54.644Z,73.125
2018-08-17T10:09:10.560Z,73.125
2018-08-17T10:10:26.485Z,73.125
2018-08-17T10:11:42.411Z,73.125
2018-08-17T10:12:58.423Z,73.125
2018-08-17T10:14:14.356Z,73.125
2018-08-17T10:15:30.299Z,73.125
2018-08-17T10:16:46.201Z,73.125
2018-08-17T10:18:02.164Z,73.125
2018-08-17T10:19:18.104Z,73.125
2018-08-17T10:20:34.081Z,73.125
2018-08-17T10:21:50.400Z,73.125
2018-08-17T10:23:05.953Z,73.125
2018-08-17T10:24:21.860Z,73.125
2018-08-17T10:25:37.806Z,73.125
2018-08-17T10:26:53.713Z,73.125
2018-08-17T10:28:09.641Z,73.125
2018-08-17T10:29:25.562Z,73.125
2018-08-17T10:30:41.464Z,73.125
2018-08-17T10:31:57.419Z,73.125
2018-08-17T10:33:13.406Z,73.125
2018-08-17T10:34:29.335Z,73.125
2018-08-17T10:35:45.291Z,73.125
2018-08-17T10:37:01.220Z,78.75
2018-08-17T10:38:17.167Z,78.75
2018-08-17T10:39:33.082Z,78.75
2018-08-17T10:40:48.994Z,78.75
2018-08-17T10:42:04.875Z,78.75
2018-08-17T10:43:20.832Z,73.125
2018-08-17T10:46:17.585Z,73.125
2018-08-17T10:47:33.538Z,73.125
2018-08-17T10:48:49.646Z,73.125
2018-08-17T10:50:05.440Z,73.125
2018-08-17T10:51:21.408Z,78.75
2018-08-17T10:52:37.321Z,73.125
2018-08-17T10:53:53.265Z,78.75
2018-08-17T10:55:09.225Z,78.75
2018-08-17T10:56:25.150Z,73.125
2018-08-17T10:57:41.023Z,78.75
2018-08-17T11:03:34.331Z,73.125
2018-08-17T11:04:50.345Z,78.75
2018-08-17T11:06:06.288Z,78.75
2018-08-17T11:07:22.189Z,78.75
2018-08-17T11:08:38.156Z,78.75
2018-08-17T11:09:54.097Z,78.75
2018-08-17T11:11:10.085Z,78.75
2018-08-17T11:12:25.946Z,78.75
2018-08-17T11:13:41.897Z,78.75
2018-08-17T11:14:57.900Z,78.75
2018-08-17T11:16:13.889Z,78.75
2018-08-17T11:17:29.825Z,78.75
2018-08-17T11:18:45.813Z,78.75
2018-08-17T11:20:01.754Z,78.75
2018-08-17T11:21:17.665Z,78.75
2018-08-17T11:22:33.618Z,78.75
2018-08-17T11:23:49.552Z,78.75
2018-08-17T11:25:05.494Z,78.75
2018-08-17T11:26:21.409Z,78.75
2018-08-17T11:27:37.338Z,78.75
2018-08-17T11:28:53.248Z,78.75
2018-08-17T11:30:09.161Z,78.75
2018-08-17T11:31:25.107Z,78.75
2018-08-17T11:32:41.019Z,78.75
2018-08-17T11:33:56.973Z,78.75
2018-08-17T11:35:12.927Z,78.75
2018-08-17T11:36:28.805Z,73.125
2018-08-17T11:37:44.832Z,78.75
2018-08-17T11:39:00.779Z,78.75
2018-08-17T11:40:17.210Z,84.375
2018-08-17T11:41:33.260Z,78.75
2018-08-17T11:42:49.095Z,84.375
2018-08-17T11:44:05.018Z,84.375
2018-08-17T11:45:20.942Z,84.375
2018-08-17T11:46:36.852Z,84.375
2018-08-17T11:47:52.824Z,84.375
2018-08-17T11:49:08.764Z,84.375
2018-08-17T11:50:24.689Z,84.375
2018-08-17T11:51:40.571Z,78.75
2018-08-17T11:52:56.762Z,84.375
2018-08-17T11:54:12.707Z,84.375
2018-08-17T11:55:28.711Z,84.375
2018-08-17T11:56:44.637Z,84.375
2018-08-17T11:58:00.515Z,84.375
2018-08-17T11:59:16.552Z,84.375
2018-08-17T12:00:32.483Z,84.375
2018-08-17T12:01:48.406Z,84.375
2018-08-17T12:03:04.338Z,84.375
2018-08-17T12:04:20.253Z,84.375
2018-08-17T12:05:36.179Z,84.375
2018-08-17T12:06:52.282Z,84.375
2018-08-17T12:08:08.263Z,73.125
2018-08-17T12:09:24.163Z,78.75
2018-08-17T12:10:40.119Z,84.375
2018-08-17T12:13:36.584Z,84.375
2018-08-17T12:14:52.580Z,84.375
2018-08-17T12:16:08.509Z,78.75
2018-08-17T12:17:24.428Z,84.375
2018-08-17T12:18:40.395Z,78.75
2018-08-17T12:19:56.343Z,78.75
2018-08-17T12:21:12.220Z,84.375
2018-08-17T12:22:28.126Z,84.375
2018-08-17T12:23:44.126Z,78.75
2018-08-17T12:25:00.127Z,84.375
2018-08-17T12:26:16.012Z,84.375
2018-08-17T12:27:31.971Z,84.375
2018-08-17T12:28:47.890Z,84.375
2018-08-17T12:30:03.766Z,84.375
2018-08-17T12:31:19.684Z,84.375
2018-08-17T12:32:35.564Z,84.375
2018-08-17T12:33:51.490Z,84.375
2018-08-17T12:35:07.457Z,84.375
2018-08-17T12:36:23.355Z,84.375
2018-08-17T12:37:39.287Z,84.375
2018-08-17T12:38:55.225Z,84.375
2018-08-17T12:40:11.250Z,84.375
2018-08-17T12:41:27.148Z,84.375
2018-08-17T12:42:43.117Z,84.375
2018-08-17T12:43:59.090Z,84.375
2018-08-17T12:45:15.030Z,78.75
2018-08-17T12:46:31.000Z,84.375
2018-08-17T12:47:46.922Z,84.375
2018-08-17T12:49:03.845Z,84.375
2018-08-17T12:50:19.757Z,84.375
2018-08-17T12:51:35.656Z,84.375
2018-08-17T12:52:51.589Z,84.375
2018-08-17T12:54:07.570Z,84.375
2018-08-17T12:55:23.497Z,90
2018-08-17T12:56:39.411Z,90
2018-08-17T12:57:55.539Z,90
2018-08-17T12:59:11.468Z,90
2018-08-17T13:00:27.430Z,90
2018-08-17T13:01:43.359Z,90
2018-08-17T13:02:59.307Z,84.375
2018-08-17T13:04:15.244Z,84.375
2018-08-17T13:05:31.188Z,84.375
2018-08-17T13:06:47.080Z,90
2018-08-17T13:08:03.015Z,90
2018-08-17T13:09:18.996Z,90
2018-08-17T13:10:34.939Z,90
2018-08-17T13:11:50.854Z,90
2018-08-17T13:13:06.787Z,90
2018-08-17T13:14:22.752Z,90
2018-08-17T13:15:38.756Z,84.375
2018-08-17T13:16:54.684Z,84.375
2018-08-17T13:18:10.572Z,78.75
2018-08-17T13:19:26.491Z,56.25
2018-08-17T13:20:42.462Z,56.25
2018-08-17T13:21:58.397Z,56.25
2018-08-17T13:23:14.280Z,61.875
2018-08-17T13:24:30.203Z,73.125
2018-08-17T13:25:46.127Z,78.75
2018-08-17T13:27:02.039Z,73.125
2018-08-17T13:28:18.045Z,67.5
2018-08-17T13:29:34.025Z,61.875
2018-08-17T13:30:50.018Z,67.5
2018-08-17T13:32:05.973Z,73.125
2018-08-17T13:33:21.876Z,73.125
2018-08-17T13:34:37.834Z,90
2018-08-17T13:35:53.816Z,84.375
2018-08-17T13:37:09.833Z,84.375
2018-08-17T13:38:25.744Z,84.375
2018-08-17T13:39:41.670Z,78.75
2018-08-17T13:40:57.753Z,78.75
2018-08-17T13:42:13.737Z,73.125
2018-08-17T13:43:29.686Z,67.5
2018-08-17T13:44:45.634Z,56.25
2018-08-17T13:46:01.615Z,45
2018-08-17T13:47:18.628Z,39.375
2018-08-17T13:48:34.648Z,33.75
2018-08-17T13:49:51.613Z,28.125
2018-08-17T13:51:07.610Z,28.125
2018-08-17T13:52:23.519Z,28.125
2018-08-17T13:53:39.495Z,28.125
2018-08-17T13:54:55.391Z,28.125
2018-08-17T13:56:11.341Z,28.125
2018-08-17T13:57:27.256Z,22.5
2018-08-17T13:58:43.207Z,22.5
2018-08-17T13:59:59.223Z,22.5
2018-08-17T14:01:15.171Z,28.125
2018-08-17T14:02:31.098Z,28.125
2018-08-17T14:03:47.064Z,28.125
2018-08-17T14:05:02.953Z,28.125
2018-08-17T14:06:18.911Z,28.125
2018-08-17T14:07:34.875Z,28.125
2018-08-17T14:08:50.854Z,22.5
2018-08-17T14:10:06.997Z,22.5
2018-08-17T14:11:22.873Z,22.5
2018-08-17T14:12:38.823Z,16.875
2018-08-17T14:13:54.889Z,16.875
2018-08-17T14:15:10.854Z,16.875
2018-08-17T14:16:26.802Z,16.875
2018-08-17T14:17:42.769Z,16.875
2018-08-17T14:18:58.728Z,16.875
2018-08-17T14:20:14.683Z,16.875
2018-08-17T14:21:30.621Z,16.875
2018-08-17T14:22:46.548Z,16.875
2018-08-17T14:24:02.465Z,16.875
2018-08-17T14:25:18.405Z,11.25
2018-08-17T14:26:34.403Z,11.25
2018-08-17T14:27:50.312Z,11.25
2018-08-17T14:29:06.243Z,11.25
2018-08-17T14:30:22.264Z,11.25
2018-08-17T14:31:38.229Z,11.25
2018-08-17T14:32:54.168Z,11.25
2018-08-17T14:34:10.122Z,5.625
2018-08-17T14:35:26.079Z,5.625
2018-08-17T14:36:42.161Z,5.625
2018-08-17T14:37:58.326Z,5.625
2018-08-17T14:39:14.230Z,5.625
2018-08-17T14:40:30.249Z,5.625
2018-08-17T14:41:46.064Z,5.625
2018-08-17T14:43:01.985Z,5.625
2018-08-17T14:44:17.875Z,5.625
2018-08-17T14:45:33.850Z,5.625
2018-08-17T14:46:49.731Z,5.625
2018-08-17T14:48:05.683Z,5.625
2018-08-17T14:49:22.613Z,5.625
2018-08-17T14:50:38.535Z,5.625
2018-08-17T14:51:54.483Z,5.625
2018-08-17T14:53:10.376Z,5.625
2018-08-17T14:54:26.330Z,5.625
2018-08-17T14:55:42.274Z,5.625
2018-08-17T14:56:58.201Z,5.625
2018-08-17T14:58:14.144Z,5.625
2018-08-17T14:59:30.095Z,5.625
2018-08-17T15:00:46.019Z,5.625
2018-08-17T15:02:01.967Z,5.625
2018-08-17T15:03:17.918Z,5.625
2018-08-17T15:04:33.870Z,5.625
2018-08-17T15:05:49.778Z,5.625
2018-08-17T15:07:05.674Z,5.625
2018-08-17T15:08:21.691Z,5.625
2018-08-17T15:09:37.627Z,5.625
2018-08-17T15:10:53.543Z,5.625
2018-08-17T15:12:09.456Z,5.625
2018-08-17T15:13:25.468Z,5.625
2018-08-17T15:14:41.307Z,5.625
2018-08-17T15:15:57.366Z,5.625
2018-08-17T15:17:13.253Z,5.625
2018-08-17T15:18:29.165Z,5.625
2018-08-17T15:19:45.105Z,5.625
2018-08-17T15:21:01.024Z,5.625
2018-08-17T15:22:16.960Z,5.625
2018-08-17T15:23:32.919Z,5.625
2018-08-17T15:24:48.873Z,5.625
2018-08-17T15:26:04.812Z,5.625
2018-08-17T15:27:20.800Z,5.625
2018-08-17T15:28:36.718Z,5.625
2018-08-17T15:29:52.652Z,5.625
2018-08-17T15:31:08.609Z,5.625
2018-08-17T15:32:24.516Z,5.625
2018-08-17T15:33:40.495Z,5.625
2018-08-17T15:34:56.430Z,5.625
2018-08-17T15:36:12.398Z,5.625
2018-08-17T15:37:28.372Z,0
2018-08-17T15:38:44.316Z,0
2018-08-17T15:40:00.235Z,0
2018-08-17T15:41:16.163Z,0
2018-08-17T15:42:32.109Z,0
2018-08-17T15:43:48.046Z,0
2018-08-17T15:45:03.980Z,0
2018-08-17T15:46:20.014Z,0
2018-08-17T15:47:35.846Z,0
2018-08-17T15:48:51.743Z,0
2018-08-17T15:50:07.724Z,0
2018-08-17T15:51:23.760Z,0
2018-08-17T15:52:39.806Z,0
2018-08-17T15:53:55.793Z,0
2018-08-17T15:55:11.744Z,0
2018-08-17T15:56:27.908Z,0
2018-08-17T15:57:44.118Z,0
2018-08-17T15:58:59.958Z,0
2018-08-17T16:00:15.928Z,0
2018-08-17T16:01:32.095Z,0
2018-08-17T16:02:47.915Z,0
2018-08-17T16:04:03.818Z,0
2018-08-17T16:05:19.746Z,0
2018-08-17T16:06:35.734Z,0
2018-08-17T16:07:51.688Z,0
2018-08-17T16:09:07.739Z,0
2018-08-17T16:10:23.682Z,0
2018-08-17T16:11:39.598Z,0
2018-08-17T16:12:55.602Z,0
2018-08-17T16:14:11.595Z,0
2018-08-17T16:15:27.535Z,0
2018-08-17T16:16:43.460Z,0
2018-08-17T16:17:59.439Z,0
2018-08-17T16:19:15.452Z,0
2018-08-17T16:20:31.366Z,0
2018-08-17T16:21:47.355Z,0
2018-08-17T16:23:03.285Z,0
2018-08-17T16:24:20.247Z,0
2018-08-17T16:25:36.214Z,0
2018-08-17T16:26:52.129Z,0
2018-08-17T16:28:08.057Z,0
2018-08-17T16:29:24.027Z,0
2018-08-17T16:30:40.037Z,0
2018-08-17T16:31:56.041Z,0
2018-08-17T16:33:11.958Z,0
2018-08-17T16:34:27.945Z,0
2018-08-17T16:35:43.926Z,0
2018-08-17T16:36:59.897Z,0
2018-08-17T16:38:15.788Z,0
2018-08-17T16:39:31.767Z,0
2018-08-17T16:40:47.752Z,0
2018-08-17T16:42:03.718Z,0
2018-08-17T16:43:19.695Z,0
2018-08-17T16:44:35.739Z,0
2018-08-17T16:45:51.656Z,0
2018-08-17T16:47:07.634Z,0
2018-08-17T16:48:23.590Z,0
2018-08-17T16:49:39.582Z,0
2018-08-17T16:50:55.534Z,0
2018-08-17T16:52:11.548Z,0
2018-08-17T16:53:27.495Z,0
2018-08-17T16:54:43.515Z,0
2018-08-17T16:55:59.379Z,0
2018-08-17T16:57:15.427Z,0
2018-08-17T16:58:31.421Z,0
2018-08-17T16:59:47.408Z,0
2018-08-17T17:01:03.365Z,0
2018-08-17T17:02:19.315Z,0
2018-08-17T17:03:35.272Z,0
2018-08-17T17:04:51.203Z,0
2018-08-17T17:06:07.248Z,0
2018-08-17T17:07:23.234Z,0
2018-08-17T17:08:39.229Z,0
2018-08-17T17:09:55.221Z,0
2018-08-17T17:11:11.245Z,0
2018-08-17T17:12:27.269Z,0
2018-08-17T17:13:43.277Z,0
2018-08-17T17:14:59.267Z,0
2018-08-17T17:16:15.232Z,0
2018-08-17T17:17:31.150Z,0
2018-08-17T17:18:48.078Z,0